sensor_id;sensor_type;location;lat;lon;timestamp;pressure;altitude;pressure_sealevel;temperature
35582;BMP180;21687;48.900;9.188;2023-08-20T00:00:19;98815.00;;;20.60
35582;BMP180;21687;48.900;9.188;2023-08-20T00:02:47;98816.00;;;20.50
35582;BMP180;21687;48.900;9.188;2023-08-20T00:05:15;98812.00;;;20.60
35582;BMP180;21687;48.900;9.188;2023-08-20T00:07:42;98811.00;;;20.60
35582;BMP180;21687;48.900;9.188;2023-08-20T00:10:09;98819.00;;;20.50
35582;BMP180;21687;48.900;9.188;2023-08-20T00:12:35;98821.00;;;20.50
35582;BMP180;21687;48.900;9.188;2023-08-20T00:15:04;98826.00;;;20.50
35582;BMP180;21687;48.900;9.188;2023-08-20T00:17:32;98826.00;;;20.50
35582;BMP180;21687;48.900;9.188;2023-08-20T00:19:58;98823.00;;;20.50
35582;BMP180;21687;48.900;9.188;2023-08-20T00:22:25;98829.00;;;20.50
35582;BMP180;21687;48.900;9.188;2023-08-20T00:24:53;98833.00;;;20.50
35582;BMP180;21687;48.900;9.188;2023-08-20T00:27:21;98822.00;;;20.50
35582;BMP180;21687;48.900;9.188;2023-08-20T00:29:47;98825.00;;;20.50
35582;BMP180;21687;48.900;9.188;2023-08-20T00:32:15;98824.00;;;20.50
35582;BMP180;21687;48.900;9.188;2023-08-20T00:34:42;98830.00;;;20.50
35582;BMP180;21687;48.900;9.188;2023-08-20T00:37:08;98832.00;;;20.50
35582;BMP180;21687;48.900;9.188;2023-08-20T00:39:34;98831.00;;;20.50
35582;BMP180;21687;48.900;9.188;2023-08-20T00:42:00;98834.00;;;20.60
35582;BMP180;21687;48.900;9.188;2023-08-20T00:44:27;98831.00;;;20.60
35582;BMP180;21687;48.900;9.188;2023-08-20T00:46:54;98832.00;;;20.60
35582;BMP180;21687;48.900;9.188;2023-08-20T00:49:20;98835.00;;;20.60
35582;BMP180;21687;48.900;9.188;2023-08-20T00:51:46;98832.00;;;20.50
35582;BMP180;21687;48.900;9.188;2023-08-20T00:54:13;98828.00;;;20.50
35582;BMP180;21687;48.900;9.188;2023-08-20T00:56:40;98826.00;;;20.60
35582;BMP180;21687;48.900;9.188;2023-08-20T00:59:07;98829.00;;;20.50
35582;BMP180;21687;48.900;9.188;2023-08-20T01:01:33;98832.00;;;20.50
35582;BMP180;21687;48.900;9.188;2023-08-20T01:03:59;98830.00;;;20.40
35582;BMP180;21687;48.900;9.188;2023-08-20T01:12:10;98831.00;;;20.50
35582;BMP180;21687;48.900;9.188;2023-08-20T01:14:38;98830.00;;;20.50
35582;BMP180;21687;48.900;9.188;2023-08-20T01:17:04;98836.00;;;20.50
35582;BMP180;21687;48.900;9.188;2023-08-20T01:19:31;98834.00;;;20.40
35582;BMP180;21687;48.900;9.188;2023-08-20T01:27:38;98837.00;;;20.40
35582;BMP180;21687;48.900;9.188;2023-08-20T01:30:09;98822.00;;;20.40
35582;BMP180;21687;48.900;9.188;2023-08-20T01:32:37;98834.00;;;20.40
35582;BMP180;21687;48.900;9.188;2023-08-20T01:35:04;98834.00;;;20.30
35582;BMP180;21687;48.900;9.188;2023-08-20T01:37:31;98828.00;;;20.30
35582;BMP180;21687;48.900;9.188;2023-08-20T01:39:57;98827.00;;;20.30
35582;BMP180;21687;48.900;9.188;2023-08-20T01:42:23;98837.00;;;20.30
35582;BMP180;21687;48.900;9.188;2023-08-20T01:44:49;98838.00;;;20.30
35582;BMP180;21687;48.900;9.188;2023-08-20T01:47:16;98839.00;;;20.20
35582;BMP180;21687;48.900;9.188;2023-08-20T01:49:42;98841.00;;;20.20
35582;BMP180;21687;48.900;9.188;2023-08-20T01:52:09;98844.00;;;20.10
35582;BMP180;21687;48.900;9.188;2023-08-20T01:54:35;98848.00;;;20.10
35582;BMP180;21687;48.900;9.188;2023-08-20T01:57:01;98846.00;;;20.00
35582;BMP180;21687;48.900;9.188;2023-08-20T01:59:28;98851.00;;;20.00
35582;BMP180;21687;48.900;9.188;2023-08-20T02:01:54;98845.00;;;20.00
35582;BMP180;21687;48.900;9.188;2023-08-20T02:04:20;98844.00;;;19.90
35582;BMP180;21687;48.900;9.188;2023-08-20T02:06:46;98849.00;;;19.80
35582;BMP180;21687;48.900;9.188;2023-08-20T02:09:13;98849.00;;;19.80
35582;BMP180;21687;48.900;9.188;2023-08-20T02:11:39;98847.00;;;19.70
35582;BMP180;21687;48.900;9.188;2023-08-20T02:14:06;98849.00;;;19.70
35582;BMP180;21687;48.900;9.188;2023-08-20T02:16:32;98843.00;;;19.70
35582;BMP180;21687;48.900;9.188;2023-08-20T02:18:58;98845.00;;;19.70
35582;BMP180;21687;48.900;9.188;2023-08-20T02:21:25;98851.00;;;19.70
35582;BMP180;21687;48.900;9.188;2023-08-20T02:23:51;98845.00;;;19.70
35582;BMP180;21687;48.900;9.188;2023-08-20T02:26:17;98845.00;;;19.60
35582;BMP180;21687;48.900;9.188;2023-08-20T02:28:44;98847.00;;;19.50
35582;BMP180;21687;48.900;9.188;2023-08-20T02:31:10;98841.00;;;19.50
35582;BMP180;21687;48.900;9.188;2023-08-20T02:33:36;98844.00;;;19.60
35582;BMP180;21687;48.900;9.188;2023-08-20T02:36:03;98842.00;;;19.60
35582;BMP180;21687;48.900;9.188;2023-08-20T02:38:30;98852.00;;;19.50
35582;BMP180;21687;48.900;9.188;2023-08-20T02:40:57;98846.00;;;19.50
35582;BMP180;21687;48.900;9.188;2023-08-20T02:43:23;98844.00;;;19.50
35582;BMP180;21687;48.900;9.188;2023-08-20T02:45:50;98842.00;;;19.50
35582;BMP180;21687;48.900;9.188;2023-08-20T02:48:17;98836.00;;;19.40
35582;BMP180;21687;48.900;9.188;2023-08-20T02:50:43;98845.00;;;19.40
35582;BMP180;21687;48.900;9.188;2023-08-20T02:53:09;98849.00;;;19.40
35582;BMP180;21687;48.900;9.188;2023-08-20T02:55:36;98844.00;;;19.40
35582;BMP180;21687;48.900;9.188;2023-08-20T02:58:02;98830.00;;;19.40
35582;BMP180;21687;48.900;9.188;2023-08-20T03:00:34;98831.00;;;19.30
35582;BMP180;21687;48.900;9.188;2023-08-20T03:03:00;98821.00;;;19.40
35582;BMP180;21687;48.900;9.188;2023-08-20T03:05:28;98821.00;;;19.40
35582;BMP180;21687;48.900;9.188;2023-08-20T03:07:55;98810.00;;;19.40
35582;BMP180;21687;48.900;9.188;2023-08-20T03:10:21;98816.00;;;19.30
35582;BMP180;21687;48.900;9.188;2023-08-20T03:12:47;98828.00;;;19.30
35582;BMP180;21687;48.900;9.188;2023-08-20T03:15:14;98823.00;;;19.20
35582;BMP180;21687;48.900;9.188;2023-08-20T03:17:40;98832.00;;;19.20
35582;BMP180;21687;48.900;9.188;2023-08-20T03:20:07;98823.00;;;19.20
35582;BMP180;21687;48.900;9.188;2023-08-20T03:22:35;98826.00;;;19.20
35582;BMP180;21687;48.900;9.188;2023-08-20T03:25:02;98829.00;;;19.20
35582;BMP180;21687;48.900;9.188;2023-08-20T03:27:28;98825.00;;;19.20
35582;BMP180;21687;48.900;9.188;2023-08-20T03:29:55;98835.00;;;19.20
35582;BMP180;21687;48.900;9.188;2023-08-20T03:32:22;98834.00;;;19.10
35582;BMP180;21687;48.900;9.188;2023-08-20T03:34:48;98833.00;;;19.10
35582;BMP180;21687;48.900;9.188;2023-08-20T03:37:14;98827.00;;;19.10
35582;BMP180;21687;48.900;9.188;2023-08-20T03:39:41;98828.00;;;19.10
35582;BMP180;21687;48.900;9.188;2023-08-20T03:42:07;98827.00;;;19.10
35582;BMP180;21687;48.900;9.188;2023-08-20T03:44:34;98816.00;;;19.10
35582;BMP180;21687;48.900;9.188;2023-08-20T03:47:00;98823.00;;;19.10
35582;BMP180;21687;48.900;9.188;2023-08-20T03:49:26;98824.00;;;19.10
35582;BMP180;21687;48.900;9.188;2023-08-20T03:51:52;98829.00;;;19.10
35582;BMP180;21687;48.900;9.188;2023-08-20T03:54:19;98825.00;;;19.00
35582;BMP180;21687;48.900;9.188;2023-08-20T03:56:45;98833.00;;;19.00
35582;BMP180;21687;48.900;9.188;2023-08-20T03:59:11;98830.00;;;19.00
35582;BMP180;21687;48.900;9.188;2023-08-20T04:01:38;98839.00;;;18.90
35582;BMP180;21687;48.900;9.188;2023-08-20T04:04:05;98838.00;;;19.00
35582;BMP180;21687;48.900;9.188;2023-08-20T04:06:31;98837.00;;;19.10
35582;BMP180;21687;48.900;9.188;2023-08-20T04:08:57;98841.00;;;19.10
35582;BMP180;21687;48.900;9.188;2023-08-20T04:11:24;98842.00;;;19.10
35582;BMP180;21687;48.900;9.188;2023-08-20T04:13:50;98844.00;;;19.00
35582;BMP180;21687;48.900;9.188;2023-08-20T04:16:16;98845.00;;;19.00
35582;BMP180;21687;48.900;9.188;2023-08-20T04:18:42;98841.00;;;19.00
35582;BMP180;21687;48.900;9.188;2023-08-20T04:21:09;98839.00;;;18.90
35582;BMP180;21687;48.900;9.188;2023-08-20T04:23:35;98839.00;;;19.00
35582;BMP180;21687;48.900;9.188;2023-08-20T04:26:01;98837.00;;;19.00
35582;BMP180;21687;48.900;9.188;2023-08-20T04:28:29;98837.00;;;19.00
35582;BMP180;21687;48.900;9.188;2023-08-20T04:30:55;98845.00;;;19.00
35582;BMP180;21687;48.900;9.188;2023-08-20T04:33:22;98848.00;;;19.00
35582;BMP180;21687;48.900;9.188;2023-08-20T04:35:51;98847.00;;;18.90
35582;BMP180;21687;48.900;9.188;2023-08-20T04:38:18;98851.00;;;18.90
35582;BMP180;21687;48.900;9.188;2023-08-20T04:40:48;98855.00;;;19.00
35582;BMP180;21687;48.900;9.188;2023-08-20T04:43:15;98849.00;;;18.90
35582;BMP180;21687;48.900;9.188;2023-08-20T04:45:42;98858.00;;;18.90
35582;BMP180;21687;48.900;9.188;2023-08-20T04:48:09;98852.00;;;18.90
35582;BMP180;21687;48.900;9.188;2023-08-20T04:50:35;98862.00;;;19.00
35582;BMP180;21687;48.900;9.188;2023-08-20T04:53:01;98850.00;;;19.00
35582;BMP180;21687;48.900;9.188;2023-08-20T04:55:28;98859.00;;;19.10
35582;BMP180;21687;48.900;9.188;2023-08-20T04:57:54;98859.00;;;19.20
35582;BMP180;21687;48.900;9.188;2023-08-20T05:00:22;98860.00;;;19.20
35582;BMP180;21687;48.900;9.188;2023-08-20T05:02:49;98865.00;;;19.30
35582;BMP180;21687;48.900;9.188;2023-08-20T05:05:15;98868.00;;;19.40
35582;BMP180;21687;48.900;9.188;2023-08-20T05:07:42;98871.00;;;19.60
35582;BMP180;21687;48.900;9.188;2023-08-20T05:10:08;98859.00;;;19.90
35582;BMP180;21687;48.900;9.188;2023-08-20T05:12:35;98863.00;;;20.10
35582;BMP180;21687;48.900;9.188;2023-08-20T05:15:01;98863.00;;;20.20
35582;BMP180;21687;48.900;9.188;2023-08-20T05:17:28;98857.00;;;20.20
35582;BMP180;21687;48.900;9.188;2023-08-20T05:19:54;98853.00;;;20.10
35582;BMP180;21687;48.900;9.188;2023-08-20T05:22:20;98859.00;;;20.10
35582;BMP180;21687;48.900;9.188;2023-08-20T05:24:47;98868.00;;;20.10
35582;BMP180;21687;48.900;9.188;2023-08-20T05:27:15;98866.00;;;20.10
35582;BMP180;21687;48.900;9.188;2023-08-20T05:29:43;98867.00;;;20.20
35582;BMP180;21687;48.900;9.188;2023-08-20T05:32:10;98862.00;;;20.30
35582;BMP180;21687;48.900;9.188;2023-08-20T05:34:36;98861.00;;;20.40
35582;BMP180;21687;48.900;9.188;2023-08-20T05:37:03;98854.00;;;20.50
35582;BMP180;21687;48.900;9.188;2023-08-20T05:39:35;98855.00;;;20.70
35582;BMP180;21687;48.900;9.188;2023-08-20T05:42:02;98863.00;;;20.80
35582;BMP180;21687;48.900;9.188;2023-08-20T05:44:29;98869.00;;;21.00
35582;BMP180;21687;48.900;9.188;2023-08-20T05:46:55;98865.00;;;21.10
35582;BMP180;21687;48.900;9.188;2023-08-20T05:49:21;98870.00;;;21.20
35582;BMP180;21687;48.900;9.188;2023-08-20T05:51:47;98875.00;;;21.30
35582;BMP180;21687;48.900;9.188;2023-08-20T05:54:14;98877.00;;;21.50
35582;BMP180;21687;48.900;9.188;2023-08-20T05:56:40;98870.00;;;21.60
35582;BMP180;21687;48.900;9.188;2023-08-20T05:59:06;98874.00;;;21.70
35582;BMP180;21687;48.900;9.188;2023-08-20T06:01:33;98875.00;;;21.80
35582;BMP180;21687;48.900;9.188;2023-08-20T06:03:59;98876.00;;;22.00
35582;BMP180;21687;48.900;9.188;2023-08-20T06:06:27;98888.00;;;22.30
35582;BMP180;21687;48.900;9.188;2023-08-20T06:08:53;98884.00;;;22.50
35582;BMP180;21687;48.900;9.188;2023-08-20T06:11:20;98902.00;;;22.80
35582;BMP180;21687;48.900;9.188;2023-08-20T06:13:46;98905.00;;;23.10
35582;BMP180;21687;48.900;9.188;2023-08-20T06:16:13;98892.00;;;23.30
35582;BMP180;21687;48.900;9.188;2023-08-20T06:18:39;98899.00;;;23.40
35582;BMP180;21687;48.900;9.188;2023-08-20T06:21:06;98887.00;;;23.50
35582;BMP180;21687;48.900;9.188;2023-08-20T06:23:32;98909.00;;;23.60
35582;BMP180;21687;48.900;9.188;2023-08-20T06:25:59;98916.00;;;23.70
35582;BMP180;21687;48.900;9.188;2023-08-20T06:28:25;98910.00;;;23.90
35582;BMP180;21687;48.900;9.188;2023-08-20T06:30:51;98901.00;;;24.00
35582;BMP180;21687;48.900;9.188;2023-08-20T06:33:17;98906.00;;;24.20
35582;BMP180;21687;48.900;9.188;2023-08-20T06:35:44;98907.00;;;24.50
35582;BMP180;21687;48.900;9.188;2023-08-20T06:38:10;98911.00;;;24.80
35582;BMP180;21687;48.900;9.188;2023-08-20T06:40:36;98908.00;;;24.90
35582;BMP180;21687;48.900;9.188;2023-08-20T06:43:02;98905.00;;;25.40
35582;BMP180;21687;48.900;9.188;2023-08-20T06:45:29;98907.00;;;25.30
35582;BMP180;21687;48.900;9.188;2023-08-20T06:47:55;98909.00;;;25.40
35582;BMP180;21687;48.900;9.188;2023-08-20T06:50:23;98909.00;;;25.30
35582;BMP180;21687;48.900;9.188;2023-08-20T06:52:49;98906.00;;;25.30
35582;BMP180;21687;48.900;9.188;2023-08-20T06:55:16;98904.00;;;25.50
35582;BMP180;21687;48.900;9.188;2023-08-20T06:57:42;98914.00;;;26.00
35582;BMP180;21687;48.900;9.188;2023-08-20T07:00:08;98916.00;;;26.60
35582;BMP180;21687;48.900;9.188;2023-08-20T07:02:36;98927.00;;;26.90
35582;BMP180;21687;48.900;9.188;2023-08-20T07:05:02;98925.00;;;27.10
35582;BMP180;21687;48.900;9.188;2023-08-20T07:07:30;98927.00;;;27.10
35582;BMP180;21687;48.900;9.188;2023-08-20T07:09:56;98922.00;;;27.20
35582;BMP180;21687;48.900;9.188;2023-08-20T07:12:22;98924.00;;;26.90
35582;BMP180;21687;48.900;9.188;2023-08-20T07:14:48;98938.00;;;27.40
35582;BMP180;21687;48.900;9.188;2023-08-20T07:17:15;98935.00;;;27.60
35582;BMP180;21687;48.900;9.188;2023-08-20T07:19:41;98938.00;;;28.00
35582;BMP180;21687;48.900;9.188;2023-08-20T07:22:07;98931.00;;;27.60
35582;BMP180;21687;48.900;9.188;2023-08-20T07:24:34;98941.00;;;28.00
35582;BMP180;21687;48.900;9.188;2023-08-20T07:27:01;98949.00;;;28.20
35582;BMP180;21687;48.900;9.188;2023-08-20T07:29:30;98952.00;;;28.30
35582;BMP180;21687;48.900;9.188;2023-08-20T07:31:59;98949.00;;;28.00
35582;BMP180;21687;48.900;9.188;2023-08-20T07:34:29;98958.00;;;28.30
35582;BMP180;21687;48.900;9.188;2023-08-20T07:36:57;98963.00;;;28.40
35582;BMP180;21687;48.900;9.188;2023-08-20T07:39:23;98965.00;;;28.30
35582;BMP180;21687;48.900;9.188;2023-08-20T07:41:49;98957.00;;;28.00
35582;BMP180;21687;48.900;9.188;2023-08-20T07:44:15;98963.00;;;27.90
35582;BMP180;21687;48.900;9.188;2023-08-20T07:46:42;98969.00;;;27.40
35582;BMP180;21687;48.900;9.188;2023-08-20T07:49:08;98976.00;;;26.90
35582;BMP180;21687;48.900;9.188;2023-08-20T07:51:34;98969.00;;;26.40
35582;BMP180;21687;48.900;9.188;2023-08-20T07:54:01;98973.00;;;26.40
35582;BMP180;21687;48.900;9.188;2023-08-20T07:56:27;98970.00;;;25.90
35582;BMP180;21687;48.900;9.188;2023-08-20T07:58:54;98976.00;;;26.00
35582;BMP180;21687;48.900;9.188;2023-08-20T08:01:20;98976.00;;;26.10
35582;BMP180;21687;48.900;9.188;2023-08-20T08:03:47;98975.00;;;26.50
35582;BMP180;21687;48.900;9.188;2023-08-20T08:06:13;98968.00;;;26.70
35582;BMP180;21687;48.900;9.188;2023-08-20T08:08:44;98969.00;;;26.70
35582;BMP180;21687;48.900;9.188;2023-08-20T08:11:11;98975.00;;;27.30
35582;BMP180;21687;48.900;9.188;2023-08-20T08:13:37;98972.00;;;27.60
35582;BMP180;21687;48.900;9.188;2023-08-20T08:16:03;98971.00;;;27.60
35582;BMP180;21687;48.900;9.188;2023-08-20T08:18:29;98975.00;;;28.10
35582;BMP180;21687;48.900;9.188;2023-08-20T08:20:56;98970.00;;;28.40
35582;BMP180;21687;48.900;9.188;2023-08-20T08:23:22;98981.00;;;28.20
35582;BMP180;21687;48.900;9.188;2023-08-20T08:25:48;98976.00;;;28.30
35582;BMP180;21687;48.900;9.188;2023-08-20T08:28:15;98984.00;;;28.50
35582;BMP180;21687;48.900;9.188;2023-08-20T08:30:41;98989.00;;;28.50
35582;BMP180;21687;48.900;9.188;2023-08-20T08:33:08;98986.00;;;27.90
35582;BMP180;21687;48.900;9.188;2023-08-20T08:35:34;98982.00;;;28.30
35582;BMP180;21687;48.900;9.188;2023-08-20T08:38:01;98973.00;;;28.90
35582;BMP180;21687;48.900;9.188;2023-08-20T08:40:29;98976.00;;;29.00
35582;BMP180;21687;48.900;9.188;2023-08-20T08:42:56;98984.00;;;29.30
35582;BMP180;21687;48.900;9.188;2023-08-20T08:45:23;98987.00;;;29.30
35582;BMP180;21687;48.900;9.188;2023-08-20T08:47:49;98981.00;;;29.40
35582;BMP180;21687;48.900;9.188;2023-08-20T08:50:16;98988.00;;;29.40
35582;BMP180;21687;48.900;9.188;2023-08-20T08:52:45;98989.00;;;29.50
35582;BMP180;21687;48.900;9.188;2023-08-20T08:55:13;98982.00;;;29.80
35582;BMP180;21687;48.900;9.188;2023-08-20T08:57:39;98987.00;;;29.90
35582;BMP180;21687;48.900;9.188;2023-08-20T09:00:06;98986.00;;;29.70
35582;BMP180;21687;48.900;9.188;2023-08-20T09:02:33;98989.00;;;30.10
35582;BMP180;21687;48.900;9.188;2023-08-20T09:05:00;98983.00;;;30.20
35582;BMP180;21687;48.900;9.188;2023-08-20T09:07:26;98982.00;;;29.90
35582;BMP180;21687;48.900;9.188;2023-08-20T09:09:58;98992.00;;;30.30
35582;BMP180;21687;48.900;9.188;2023-08-20T09:12:26;98985.00;;;30.70
35582;BMP180;21687;48.900;9.188;2023-08-20T09:14:53;98990.00;;;30.40
35582;BMP180;21687;48.900;9.188;2023-08-20T09:17:26;98981.00;;;30.60
35582;BMP180;21687;48.900;9.188;2023-08-20T09:19:55;98982.00;;;31.10
35582;BMP180;21687;48.900;9.188;2023-08-20T09:22:24;98992.00;;;30.90
35582;BMP180;21687;48.900;9.188;2023-08-20T09:24:57;98987.00;;;30.80
35582;BMP180;21687;48.900;9.188;2023-08-20T09:27:24;98991.00;;;31.20
35582;BMP180;21687;48.900;9.188;2023-08-20T09:29:56;98990.00;;;31.50
35582;BMP180;21687;48.900;9.188;2023-08-20T09:32:26;98989.00;;;31.60
35582;BMP180;21687;48.900;9.188;2023-08-20T09:34:54;98986.00;;;31.40
35582;BMP180;21687;48.900;9.188;2023-08-20T09:37:22;98984.00;;;31.40
35582;BMP180;21687;48.900;9.188;2023-08-20T09:39:49;98985.00;;;31.30
35582;BMP180;21687;48.900;9.188;2023-08-20T09:42:16;98994.00;;;31.00
35582;BMP180;21687;48.900;9.188;2023-08-20T09:44:44;98996.00;;;31.10
35582;BMP180;21687;48.900;9.188;2023-08-20T09:47:12;98987.00;;;31.00
35582;BMP180;21687;48.900;9.188;2023-08-20T09:49:43;98989.00;;;30.50
35582;BMP180;21687;48.900;9.188;2023-08-20T09:52:12;98987.00;;;30.50
35582;BMP180;21687;48.900;9.188;2023-08-20T09:55:00;98994.00;;;30.60
35582;BMP180;21687;48.900;9.188;2023-08-20T09:57:35;98991.00;;;30.60
35582;BMP180;21687;48.900;9.188;2023-08-20T10:00:03;98984.00;;;30.90
35582;BMP180;21687;48.900;9.188;2023-08-20T10:02:32;98982.00;;;31.00
35582;BMP180;21687;48.900;9.188;2023-08-20T10:05:00;98983.00;;;30.80
35582;BMP180;21687;48.900;9.188;2023-08-20T10:07:29;98978.00;;;30.50
35582;BMP180;21687;48.900;9.188;2023-08-20T10:10:00;98980.00;;;30.20
35582;BMP180;21687;48.900;9.188;2023-08-20T10:12:30;98984.00;;;30.00
35582;BMP180;21687;48.900;9.188;2023-08-20T10:14:57;98978.00;;;29.90
35582;BMP180;21687;48.900;9.188;2023-08-20T10:17:24;98972.00;;;30.00
35582;BMP180;21687;48.900;9.188;2023-08-20T10:19:52;98985.00;;;29.60
35582;BMP180;21687;48.900;9.188;2023-08-20T10:22:21;98983.00;;;29.80
35582;BMP180;21687;48.900;9.188;2023-08-20T10:24:52;98989.00;;;29.70
35582;BMP180;21687;48.900;9.188;2023-08-20T10:27:30;98987.00;;;29.60
35582;BMP180;21687;48.900;9.188;2023-08-20T10:29:59;98985.00;;;29.80
35582;BMP180;21687;48.900;9.188;2023-08-20T10:32:45;98986.00;;;29.90
35582;BMP180;21687;48.900;9.188;2023-08-20T10:35:17;98989.00;;;29.70
35582;BMP180;21687;48.900;9.188;2023-08-20T10:38:14;98991.00;;;29.80
35582;BMP180;21687;48.900;9.188;2023-08-20T10:43:33;98992.00;;;29.30
35582;BMP180;21687;48.900;9.188;2023-08-20T10:46:14;98987.00;;;29.10
35582;BMP180;21687;48.900;9.188;2023-08-20T10:48:43;98981.00;;;28.90
35582;BMP180;21687;48.900;9.188;2023-08-20T10:51:13;98981.00;;;28.90
35582;BMP180;21687;48.900;9.188;2023-08-20T10:53:42;98981.00;;;29.00
35582;BMP180;21687;48.900;9.188;2023-08-20T10:56:16;98982.00;;;29.10
35582;BMP180;21687;48.900;9.188;2023-08-20T10:58:44;98978.00;;;29.00
35582;BMP180;21687;48.900;9.188;2023-08-20T11:01:15;98977.00;;;28.90
35582;BMP180;21687;48.900;9.188;2023-08-20T11:03:49;98975.00;;;28.90
35582;BMP180;21687;48.900;9.188;2023-08-20T11:06:19;98982.00;;;29.10
35582;BMP180;21687;48.900;9.188;2023-08-20T11:08:46;98969.00;;;29.30
35582;BMP180;21687;48.900;9.188;2023-08-20T11:11:13;98968.00;;;29.10
35582;BMP180;21687;48.900;9.188;2023-08-20T11:13:39;98968.00;;;29.20
35582;BMP180;21687;48.900;9.188;2023-08-20T11:16:06;98971.00;;;29.30
35582;BMP180;21687;48.900;9.188;2023-08-20T11:18:34;98969.00;;;29.60
35582;BMP180;21687;48.900;9.188;2023-08-20T11:21:01;98960.00;;;29.70
35582;BMP180;21687;48.900;9.188;2023-08-20T11:23:28;98964.00;;;29.60
35582;BMP180;21687;48.900;9.188;2023-08-20T11:25:56;98963.00;;;29.60
35582;BMP180;21687;48.900;9.188;2023-08-20T11:28:24;98961.00;;;29.70
35582;BMP180;21687;48.900;9.188;2023-08-20T11:30:51;98962.00;;;29.50
35582;BMP180;21687;48.900;9.188;2023-08-20T11:33:17;98964.00;;;29.60
35582;BMP180;21687;48.900;9.188;2023-08-20T11:35:43;98963.00;;;29.70
35582;BMP180;21687;48.900;9.188;2023-08-20T11:38:11;98959.00;;;29.70
35582;BMP180;21687;48.900;9.188;2023-08-20T11:40:38;98963.00;;;29.80
35582;BMP180;21687;48.900;9.188;2023-08-20T11:43:05;98951.00;;;29.90
35582;BMP180;21687;48.900;9.188;2023-08-20T11:45:31;98955.00;;;30.00
35582;BMP180;21687;48.900;9.188;2023-08-20T11:48:00;98967.00;;;29.90
35582;BMP180;21687;48.900;9.188;2023-08-20T11:50:27;98952.00;;;30.10
35582;BMP180;21687;48.900;9.188;2023-08-20T11:52:54;98960.00;;;29.90
35582;BMP180;21687;48.900;9.188;2023-08-20T11:55:24;98954.00;;;29.80
35582;BMP180;21687;48.900;9.188;2023-08-20T11:57:53;98954.00;;;30.00
35582;BMP180;21687;48.900;9.188;2023-08-20T12:00:27;98955.00;;;30.00
35582;BMP180;21687;48.900;9.188;2023-08-20T12:02:54;98944.00;;;30.20
35582;BMP180;21687;48.900;9.188;2023-08-20T12:05:26;98943.00;;;30.20
35582;BMP180;21687;48.900;9.188;2023-08-20T12:08:16;98935.00;;;30.30
35582;BMP180;21687;48.900;9.188;2023-08-20T12:10:44;98940.00;;;30.20
35582;BMP180;21687;48.900;9.188;2023-08-20T12:13:11;98940.00;;;30.40
35582;BMP180;21687;48.900;9.188;2023-08-20T12:15:37;98929.00;;;30.40
35582;BMP180;21687;48.900;9.188;2023-08-20T12:18:05;98932.00;;;30.50
35582;BMP180;21687;48.900;9.188;2023-08-20T12:20:33;98934.00;;;30.70
35582;BMP180;21687;48.900;9.188;2023-08-20T12:23:02;98942.00;;;30.70
35582;BMP180;21687;48.900;9.188;2023-08-20T12:25:36;98938.00;;;30.80
35582;BMP180;21687;48.900;9.188;2023-08-20T12:28:03;98942.00;;;30.90
35582;BMP180;21687;48.900;9.188;2023-08-20T12:30:32;98943.00;;;30.90
35582;BMP180;21687;48.900;9.188;2023-08-20T12:33:00;98926.00;;;30.80
35582;BMP180;21687;48.900;9.188;2023-08-20T12:35:27;98934.00;;;31.00
35582;BMP180;21687;48.900;9.188;2023-08-20T12:37:53;98930.00;;;30.90
35582;BMP180;21687;48.900;9.188;2023-08-20T12:40:20;98926.00;;;30.90
35582;BMP180;21687;48.900;9.188;2023-08-20T12:42:46;98919.00;;;31.00
35582;BMP180;21687;48.900;9.188;2023-08-20T12:45:12;98934.00;;;31.10
35582;BMP180;21687;48.900;9.188;2023-08-20T12:47:39;98918.00;;;31.00
35582;BMP180;21687;48.900;9.188;2023-08-20T12:50:06;98913.00;;;31.20
35582;BMP180;21687;48.900;9.188;2023-08-20T12:52:33;98914.00;;;31.30
35582;BMP180;21687;48.900;9.188;2023-08-20T12:55:00;98912.00;;;31.30
35582;BMP180;21687;48.900;9.188;2023-08-20T12:57:26;98908.00;;;31.40
35582;BMP180;21687;48.900;9.188;2023-08-20T12:59:52;98915.00;;;31.50
35582;BMP180;21687;48.900;9.188;2023-08-20T13:02:19;98906.00;;;31.70
35582;BMP180;21687;48.900;9.188;2023-08-20T13:04:50;98907.00;;;31.50
35582;BMP180;21687;48.900;9.188;2023-08-20T13:07:38;98905.00;;;31.50
35582;BMP180;21687;48.900;9.188;2023-08-20T13:10:23;98909.00;;;31.60
35582;BMP180;21687;48.900;9.188;2023-08-20T13:12:54;98911.00;;;31.60
35582;BMP180;21687;48.900;9.188;2023-08-20T13:15:25;98912.00;;;31.70
35582;BMP180;21687;48.900;9.188;2023-08-20T13:17:52;98902.00;;;31.60
35582;BMP180;21687;48.900;9.188;2023-08-20T13:20:18;98901.00;;;31.60
35582;BMP180;21687;48.900;9.188;2023-08-20T13:22:51;98901.00;;;31.50
35582;BMP180;21687;48.900;9.188;2023-08-20T13:25:18;98900.00;;;31.70
35582;BMP180;21687;48.900;9.188;2023-08-20T13:27:45;98897.00;;;31.50
35582;BMP180;21687;48.900;9.188;2023-08-20T13:30:11;98899.00;;;31.60
35582;BMP180;21687;48.900;9.188;2023-08-20T13:32:38;98895.00;;;31.60
35582;BMP180;21687;48.900;9.188;2023-08-20T13:35:04;98899.00;;;31.60
35582;BMP180;21687;48.900;9.188;2023-08-20T13:37:31;98892.00;;;31.70
35582;BMP180;21687;48.900;9.188;2023-08-20T13:40:01;98884.00;;;31.80
35582;BMP180;21687;48.900;9.188;2023-08-20T13:42:27;98893.00;;;32.00
35582;BMP180;21687;48.900;9.188;2023-08-20T13:44:54;98896.00;;;31.90
35582;BMP180;21687;48.900;9.188;2023-08-20T13:47:20;98888.00;;;31.70
35582;BMP180;21687;48.900;9.188;2023-08-20T13:49:46;98879.00;;;31.80
35582;BMP180;21687;48.900;9.188;2023-08-20T13:52:13;98885.00;;;31.90
35582;BMP180;21687;48.900;9.188;2023-08-20T13:54:39;98887.00;;;31.60
35582;BMP180;21687;48.900;9.188;2023-08-20T13:57:05;98875.00;;;31.50
35582;BMP180;21687;48.900;9.188;2023-08-20T13:59:32;98885.00;;;31.50
35582;BMP180;21687;48.900;9.188;2023-08-20T14:01:59;98886.00;;;31.30
35582;BMP180;21687;48.900;9.188;2023-08-20T14:04:25;98888.00;;;31.30
35582;BMP180;21687;48.900;9.188;2023-08-20T14:06:51;98883.00;;;31.20
35582;BMP180;21687;48.900;9.188;2023-08-20T14:09:18;98881.00;;;31.20
35582;BMP180;21687;48.900;9.188;2023-08-20T14:11:48;98883.00;;;31.30
35582;BMP180;21687;48.900;9.188;2023-08-20T14:14:14;98890.00;;;31.30
35582;BMP180;21687;48.900;9.188;2023-08-20T14:16:40;98879.00;;;31.30
35582;BMP180;21687;48.900;9.188;2023-08-20T14:19:07;98879.00;;;31.40
35582;BMP180;21687;48.900;9.188;2023-08-20T14:21:33;98878.00;;;31.30
35582;BMP180;21687;48.900;9.188;2023-08-20T14:24:00;98876.00;;;31.20